sensor_id;sensor_type;location;lat;lon;timestamp;P1;durP1;ratioP1;P2;durP2;ratioP2
50367;SDS011;36281;34.132;-118.018;2023-11-22T00:00:40;2.90;;;1.60;;
50367;SDS011;36281;34.132;-118.018;2023-11-22T00:03:23;3.38;;;1.60;;
50367;SDS011;36281;34.132;-118.018;2023-11-22T00:06:12;2.45;;;1.50;;
50367;SDS011;36281;34.132;-118.018;2023-11-22T00:08:51;4.93;;;2.00;;
50367;SDS011;36281;34.132;-118.018;2023-11-22T00:11:28;3.90;;;2.00;;
50367;SDS011;36281;34.132;-118.018;2023-11-22T00:14:01;5.97;;;2.50;;
50367;SDS011;36281;34.132;-118.018;2023-11-22T00:16:36;6.88;;;2.47;;
50367;SDS011;36281;34.132;-118.018;2023-11-22T00:19:11;7.03;;;2.50;;
50367;SDS011;36281;34.132;-118.018;2023-11-22T00:21:54;7.72;;;2.83;;
50367;SDS011;36281;34.132;-118.018;2023-11-22T00:24:33;6.47;;;2.58;;
50367;SDS011;36281;34.132;-118.018;2023-11-22T00:27:17;7.03;;;2.10;;
50367;SDS011;36281;34.132;-118.018;2023-11-22T00:29:49;3.67;;;1.98;;
50367;SDS011;36281;34.132;-118.018;2023-11-22T00:32:32;4.68;;;2.00;;
50367;SDS011;36281;34.132;-118.018;2023-11-22T00:35:09;5.97;;;2.00;;
50367;SDS011;36281;34.132;-118.018;2023-11-22T00:37:53;4.03;;;1.92;;
50367;SDS011;36281;34.132;-118.018;2023-11-22T00:40:34;4.45;;;2.28;;
50367;SDS011;36281;34.132;-118.018;2023-11-22T00:43:09;5.45;;;2.50;;
50367;SDS011;36281;34.132;-118.018;2023-11-22T00:45:42;5.05;;;2.28;;
50367;SDS011;36281;34.132;-118.018;2023-11-22T00:48:18;6.13;;;3.20;;
50367;SDS011;36281;34.132;-118.018;2023-11-22T00:50:50;6.97;;;2.60;;
50367;SDS011;36281;34.132;-118.018;2023-11-22T00:53:23;6.97;;;2.90;;
50367;SDS011;36281;34.132;-118.018;2023-11-22T00:56:12;9.98;;;3.00;;
50367;SDS011;36281;34.132;-118.018;2023-11-22T00:58:46;9.40;;;3.35;;
50367;SDS011;36281;34.132;-118.018;2023-11-22T01:01:18;9.15;;;3.20;;
50367;SDS011;36281;34.132;-118.018;2023-11-22T01:04:05;7.53;;;3.00;;
50367;SDS011;36281;34.132;-118.018;2023-11-22T01:06:35;6.60;;;2.90;;
50367;SDS011;36281;34.132;-118.018;2023-11-22T01:09:08;11.20;;;2.90;;
50367;SDS011;36281;34.132;-118.018;2023-11-22T01:11:42;5.25;;;2.70;;
50367;SDS011;36281;34.132;-118.018;2023-11-22T01:14:14;5.32;;;3.10;;
50367;SDS011;36281;34.132;-118.018;2023-11-22T01:16:44;5.38;;;3.03;;
50367;SDS011;36281;34.132;-118.018;2023-11-22T01:19:16;6.90;;;2.83;;
50367;SDS011;36281;34.132;-118.018;2023-11-22T01:21:47;6.20;;;2.90;;
50367;SDS011;36281;34.132;-118.018;2023-11-22T01:24:19;7.38;;;3.30;;
50367;SDS011;36281;34.132;-118.018;2023-11-22T01:27:02;3.53;;;3.08;;
50367;SDS011;36281;34.132;-118.018;2023-11-22T01:29:32;6.07;;;3.50;;
50367;SDS011;36281;34.132;-118.018;2023-11-22T01:32:06;7.28;;;2.90;;
50367;SDS011;36281;34.132;-118.018;2023-11-22T01:34:40;6.15;;;3.10;;
50367;SDS011;36281;34.132;-118.018;2023-11-22T01:37:11;4.55;;;2.85;;
50367;SDS011;36281;34.132;-118.018;2023-11-22T01:39:41;4.28;;;3.05;;
50367;SDS011;36281;34.132;-118.018;2023-11-22T01:42:12;6.35;;;3.08;;
50367;SDS011;36281;34.132;-118.018;2023-11-22T01:44:42;6.57;;;3.53;;
50367;SDS011;36281;34.132;-118.018;2023-11-22T01:47:12;7.75;;;3.90;;
50367;SDS011;36281;34.132;-118.018;2023-11-22T01:49:48;9.45;;;4.70;;
50367;SDS011;36281;34.132;-118.018;2023-11-22T01:52:28;12.43;;;5.10;;
50367;SDS011;36281;34.132;-118.018;2023-11-22T01:55:02;11.10;;;5.45;;
50367;SDS011;36281;34.132;-118.018;2023-11-22T01:57:34;7.32;;;4.57;;
50367;SDS011;36281;34.132;-118.018;2023-11-22T02:00:04;12.07;;;5.07;;
50367;SDS011;36281;34.132;-118.018;2023-11-22T02:02:43;8.75;;;4.63;;
50367;SDS011;36281;34.132;-118.018;2023-11-22T02:05:16;11.35;;;5.10;;
50367;SDS011;36281;34.132;-118.018;2023-11-22T02:07:47;7.75;;;4.50;;
50367;SDS011;36281;34.132;-118.018;2023-11-22T02:10:18;6.78;;;4.05;;
50367;SDS011;36281;34.132;-118.018;2023-11-22T02:12:49;7.85;;;4.13;;
50367;SDS011;36281;34.132;-118.018;2023-11-22T02:15:23;5.85;;;3.88;;
50367;SDS011;36281;34.132;-118.018;2023-11-22T02:17:53;11.48;;;5.00;;
50367;SDS011;36281;34.132;-118.018;2023-11-22T02:20:36;9.80;;;4.22;;
50367;SDS011;36281;34.132;-118.018;2023-11-22T02:23:10;6.80;;;4.10;;
50367;SDS011;36281;34.132;-118.018;2023-11-22T02:25:40;5.78;;;3.83;;
50367;SDS011;36281;34.132;-118.018;2023-11-22T02:28:14;5.18;;;3.45;;
50367;SDS011;36281;34.132;-118.018;2023-11-22T02:30:46;6.03;;;3.55;;
50367;SDS011;36281;34.132;-118.018;2023-11-22T02:33:16;4.13;;;3.08;;
50367;SDS011;36281;34.132;-118.018;2023-11-22T02:35:52;5.90;;;3.40;;
50367;SDS011;36281;34.132;-118.018;2023-11-22T02:38:29;5.53;;;3.15;;
50367;SDS011;36281;34.132;-118.018;2023-11-22T02:43:28;5.90;;;3.00;;
50367;SDS011;36281;34.132;-118.018;2023-11-22T02:45:58;4.13;;;2.90;;
50367;SDS011;36281;34.132;-118.018;2023-11-22T02:48:28;5.50;;;3.10;;
50367;SDS011;36281;34.132;-118.018;2023-11-22T02:50:59;5.90;;;3.30;;
50367;SDS011;36281;34.132;-118.018;2023-11-22T02:53:33;4.80;;;2.75;;
50367;SDS011;36281;34.132;-118.018;2023-11-22T02:56:03;5.47;;;3.00;;
50367;SDS011;36281;34.132;-118.018;2023-11-22T02:58:37;6.72;;;3.05;;
50367;SDS011;36281;34.132;-118.018;2023-11-22T03:01:10;4.20;;;2.90;;
50367;SDS011;36281;34.132;-118.018;2023-11-22T03:03:41;7.43;;;3.20;;
50367;SDS011;36281;34.132;-118.018;2023-11-22T03:06:11;5.90;;;2.60;;
50367;SDS011;36281;34.132;-118.018;2023-11-22T03:08:42;5.68;;;2.90;;
50367;SDS011;36281;34.132;-118.018;2023-11-22T03:11:13;6.35;;;3.28;;
50367;SDS011;36281;34.132;-118.018;2023-11-22T03:13:43;5.05;;;2.80;;
50367;SDS011;36281;34.132;-118.018;2023-11-22T03:16:13;6.68;;;2.90;;
50367;SDS011;36281;34.132;-118.018;2023-11-22T03:18:44;5.32;;;3.40;;
50367;SDS011;36281;34.132;-118.018;2023-11-22T03:21:17;4.90;;;2.78;;
50367;SDS011;36281;34.132;-118.018;2023-11-22T03:23:49;6.18;;;3.20;;
50367;SDS011;36281;34.132;-118.018;2023-11-22T03:26:20;6.57;;;3.17;;
50367;SDS011;36281;34.132;-118.018;2023-11-22T03:28:50;7.55;;;3.10;;
50367;SDS011;36281;34.132;-118.018;2023-11-22T03:31:20;5.07;;;2.90;;
50367;SDS011;36281;34.132;-118.018;2023-11-22T03:33:50;4.18;;;3.10;;
50367;SDS011;36281;34.132;-118.018;2023-11-22T03:36:21;4.68;;;2.83;;
50367;SDS011;36281;34.132;-118.018;2023-11-22T03:38:56;5.65;;;3.20;;
50367;SDS011;36281;34.132;-118.018;2023-11-22T03:41:28;4.93;;;3.40;;
50367;SDS011;36281;34.132;-118.018;2023-11-22T03:44:02;7.38;;;3.20;;
50367;SDS011;36281;34.132;-118.018;2023-11-22T03:46:38;5.00;;;3.20;;
50367;SDS011;36281;34.132;-118.018;2023-11-22T03:49:09;6.13;;;3.40;;
50367;SDS011;36281;34.132;-118.018;2023-11-22T03:51:42;9.43;;;3.60;;
50367;SDS011;36281;34.132;-118.018;2023-11-22T03:57:07;4.72;;;3.17;;
50367;SDS011;36281;34.132;-118.018;2023-11-22T03:59:40;5.78;;;3.58;;
50367;SDS011;36281;34.132;-118.018;2023-11-22T04:02:12;7.28;;;4.32;;
50367;SDS011;36281;34.132;-118.018;2023-11-22T04:04:41;8.02;;;4.63;;
50367;SDS011;36281;34.132;-118.018;2023-11-22T04:07:16;8.57;;;5.30;;
50367;SDS011;36281;34.132;-118.018;2023-11-22T04:12:48;10.13;;;6.85;;
50367;SDS011;36281;34.132;-118.018;2023-11-22T04:15:19;9.73;;;6.30;;
50367;SDS011;36281;34.132;-118.018;2023-11-22T04:17:49;13.73;;;8.55;;
50367;SDS011;36281;34.132;-118.018;2023-11-22T04:20:24;11.45;;;8.10;;
50367;SDS011;36281;34.132;-118.018;2023-11-22T04:22:55;12.52;;;7.68;;
50367;SDS011;36281;34.132;-118.018;2023-11-22T04:25:28;10.38;;;6.95;;
50367;SDS011;36281;34.132;-118.018;2023-11-22T04:27:58;11.65;;;6.47;;
50367;SDS011;36281;34.132;-118.018;2023-11-22T04:30:28;12.45;;;6.95;;
50367;SDS011;36281;34.132;-118.018;2023-11-22T04:32:58;11.98;;;6.90;;
50367;SDS011;36281;34.132;-118.018;2023-11-22T04:35:31;10.43;;;6.18;;
50367;SDS011;36281;34.132;-118.018;2023-11-22T04:38:08;9.45;;;5.93;;
50367;SDS011;36281;34.132;-118.018;2023-11-22T04:40:55;8.95;;;6.10;;
50367;SDS011;36281;34.132;-118.018;2023-11-22T04:43:25;11.57;;;6.00;;
50367;SDS011;36281;34.132;-118.018;2023-11-22T04:45:56;13.57;;;6.28;;
50367;SDS011;36281;34.132;-118.018;2023-11-22T04:48:27;11.95;;;6.70;;
50367;SDS011;36281;34.132;-118.018;2023-11-22T04:51:00;11.10;;;7.00;;
50367;SDS011;36281;34.132;-118.018;2023-11-22T04:53:31;12.95;;;6.30;;
50367;SDS011;36281;34.132;-118.018;2023-11-22T04:56:03;11.43;;;7.22;;
50367;SDS011;36281;34.132;-118.018;2023-11-22T04:58:35;13.43;;;6.60;;
50367;SDS011;36281;34.132;-118.018;2023-11-22T05:01:06;12.57;;;6.18;;
50367;SDS011;36281;34.132;-118.018;2023-11-22T05:03:44;11.02;;;6.13;;
50367;SDS011;36281;34.132;-118.018;2023-11-22T05:06:14;11.73;;;6.63;;
50367;SDS011;36281;34.132;-118.018;2023-11-22T05:08:47;10.93;;;6.35;;
50367;SDS011;36281;34.132;-118.018;2023-11-22T05:11:19;8.07;;;5.93;;
50367;SDS011;36281;34.132;-118.018;2023-11-22T05:13:49;12.43;;;6.10;;
50367;SDS011;36281;34.132;-118.018;2023-11-22T05:16:20;11.95;;;6.50;;
50367;SDS011;36281;34.132;-118.018;2023-11-22T05:18:52;12.65;;;6.68;;
50367;SDS011;36281;34.132;-118.018;2023-11-22T05:21:26;11.20;;;7.05;;
50367;SDS011;36281;34.132;-118.018;2023-11-22T05:23:58;12.65;;;7.85;;
50367;SDS011;36281;34.132;-118.018;2023-11-22T05:26:32;14.50;;;7.85;;
50367;SDS011;36281;34.132;-118.018;2023-11-22T05:29:16;13.48;;;8.27;;
50367;SDS011;36281;34.132;-118.018;2023-11-22T05:31:47;12.35;;;8.65;;
50367;SDS011;36281;34.132;-118.018;2023-11-22T05:34:17;15.70;;;8.75;;
50367;SDS011;36281;34.132;-118.018;2023-11-22T05:36:49;12.65;;;8.13;;
50367;SDS011;36281;34.132;-118.018;2023-11-22T05:39:22;13.00;;;7.68;;
50367;SDS011;36281;34.132;-118.018;2023-11-22T05:41:54;12.52;;;7.40;;
50367;SDS011;36281;34.132;-118.018;2023-11-22T05:44:30;12.23;;;7.05;;
50367;SDS011;36281;34.132;-118.018;2023-11-22T05:47:03;10.43;;;7.00;;
50367;SDS011;36281;34.132;-118.018;2023-11-22T05:49:36;12.35;;;6.85;;
50367;SDS011;36281;34.132;-118.018;2023-11-22T05:52:07;9.90;;;6.55;;
50367;SDS011;36281;34.132;-118.018;2023-11-22T05:54:39;12.02;;;6.50;;
50367;SDS011;36281;34.132;-118.018;2023-11-22T05:57:15;8.25;;;6.10;;
50367;SDS011;36281;34.132;-118.018;2023-11-22T05:59:48;8.87;;;5.97;;
50367;SDS011;36281;34.132;-118.018;2023-11-22T06:02:29;8.88;;;5.30;;
50367;SDS011;36281;34.132;-118.018;2023-11-22T06:05:07;10.90;;;5.75;;
50367;SDS011;36281;34.132;-118.018;2023-11-22T06:07:42;9.32;;;5.28;;
50367;SDS011;36281;34.132;-118.018;2023-11-22T06:10:16;9.88;;;4.80;;
50367;SDS011;36281;34.132;-118.018;2023-11-22T06:12:51;7.38;;;4.60;;
50367;SDS011;36281;34.132;-118.018;2023-11-22T06:15:29;7.07;;;4.47;;
50367;SDS011;36281;34.132;-118.018;2023-11-22T06:18:03;5.47;;;4.03;;
50367;SDS011;36281;34.132;-118.018;2023-11-22T06:20:34;7.07;;;4.25;;
50367;SDS011;36281;34.132;-118.018;2023-11-22T06:23:05;8.38;;;4.32;;
50367;SDS011;36281;34.132;-118.018;2023-11-22T06:25:36;8.15;;;3.95;;
50367;SDS011;36281;34.132;-118.018;2023-11-22T06:28:11;6.75;;;4.15;;
50367;SDS011;36281;34.132;-118.018;2023-11-22T06:30:42;6.20;;;3.63;;
50367;SDS011;36281;34.132;-118.018;2023-11-22T06:33:15;7.38;;;3.67;;
50367;SDS011;36281;34.132;-118.018;2023-11-22T06:35:50;7.78;;;3.88;;
50367;SDS011;36281;34.132;-118.018;2023-11-22T06:38:22;5.75;;;3.65;;
50367;SDS011;36281;34.132;-118.018;2023-11-22T06:40:52;8.07;;;3.90;;
50367;SDS011;36281;34.132;-118.018;2023-11-22T06:43:26;7.65;;;3.95;;
50367;SDS011;36281;34.132;-118.018;2023-11-22T06:45:58;8.10;;;4.00;;
50367;SDS011;36281;34.132;-118.018;2023-11-22T06:48:31;8.70;;;3.88;;
50367;SDS011;36281;34.132;-118.018;2023-11-22T06:51:02;9.77;;;3.60;;
50367;SDS011;36281;34.132;-118.018;2023-11-22T06:53:33;7.15;;;3.90;;
50367;SDS011;36281;34.132;-118.018;2023-11-22T06:56:08;6.15;;;3.65;;
50367;SDS011;36281;34.132;-118.018;2023-11-22T06:58:44;7.18;;;3.78;;
50367;SDS011;36281;34.132;-118.018;2023-11-22T07:01:13;6.32;;;3.90;;
50367;SDS011;36281;34.132;-118.018;2023-11-22T07:03:45;6.32;;;4.07;;
50367;SDS011;36281;34.132;-118.018;2023-11-22T07:06:15;6.25;;;3.70;;
50367;SDS011;36281;34.132;-118.018;2023-11-22T07:08:51;6.65;;;3.97;;
50367;SDS011;36281;34.132;-118.018;2023-11-22T07:11:22;7.82;;;4.18;;
50367;SDS011;36281;34.132;-118.018;2023-11-22T07:14:15;6.57;;;4.30;;
50367;SDS011;36281;34.132;-118.018;2023-11-22T07:16:49;7.40;;;4.18;;
50367;SDS011;36281;34.132;-118.018;2023-11-22T07:19:21;8.10;;;4.20;;
50367;SDS011;36281;34.132;-118.018;2023-11-22T07:21:51;6.00;;;4.00;;
50367;SDS011;36281;34.132;-118.018;2023-11-22T07:24:24;6.30;;;4.00;;
50367;SDS011;36281;34.132;-118.018;2023-11-22T07:26:57;7.03;;;3.80;;
50367;SDS011;36281;34.132;-118.018;2023-11-22T07:29:31;5.75;;;3.78;;
50367;SDS011;36281;34.132;-118.018;2023-11-22T07:32:01;6.88;;;3.90;;
50367;SDS011;36281;34.132;-118.018;2023-11-22T07:34:33;5.78;;;3.90;;
50367;SDS011;36281;34.132;-118.018;2023-11-22T07:37:04;6.38;;;3.97;;
50367;SDS011;36281;34.132;-118.018;2023-11-22T07:39:38;7.85;;;3.88;;
50367;SDS011;36281;34.132;-118.018;2023-11-22T07:42:14;7.30;;;3.80;;
50367;SDS011;36281;34.132;-118.018;2023-11-22T07:44:47;6.50;;;4.00;;
50367;SDS011;36281;34.132;-118.018;2023-11-22T07:47:29;6.13;;;3.80;;
50367;SDS011;36281;34.132;-118.018;2023-11-22T07:50:00;7.50;;;3.60;;
50367;SDS011;36281;34.132;-118.018;2023-11-22T07:52:31;5.43;;;3.40;;
50367;SDS011;36281;34.132;-118.018;2023-11-22T07:55:03;6.70;;;3.83;;
50367;SDS011;36281;34.132;-118.018;2023-11-22T07:57:42;5.75;;;3.38;;
50367;SDS011;36281;34.132;-118.018;2023-11-22T08:00:17;7.03;;;3.30;;
50367;SDS011;36281;34.132;-118.018;2023-11-22T08:02:51;5.45;;;3.50;;
50367;SDS011;36281;34.132;-118.018;2023-11-22T08:05:28;7.40;;;3.70;;
50367;SDS011;36281;34.132;-118.018;2023-11-22T08:08:13;5.57;;;3.60;;
50367;SDS011;36281;34.132;-118.018;2023-11-22T08:10:44;5.47;;;3.60;;
50367;SDS011;36281;34.132;-118.018;2023-11-22T08:13:18;5.30;;;3.60;;
50367;SDS011;36281;34.132;-118.018;2023-11-22T08:15:54;4.88;;;3.80;;
50367;SDS011;36281;34.132;-118.018;2023-11-22T08:18:27;6.20;;;3.90;;
50367;SDS011;36281;34.132;-118.018;2023-11-22T08:20:59;4.13;;;3.60;;
50367;SDS011;36281;34.132;-118.018;2023-11-22T08:23:31;5.55;;;3.70;;
50367;SDS011;36281;34.132;-118.018;2023-11-22T08:26:02;5.13;;;3.58;;
50367;SDS011;36281;34.132;-118.018;2023-11-22T08:28:34;5.05;;;3.63;;
50367;SDS011;36281;34.132;-118.018;2023-11-22T08:31:09;5.18;;;3.50;;
50367;SDS011;36281;34.132;-118.018;2023-11-22T08:33:45;4.25;;;3.03;;
50367;SDS011;36281;34.132;-118.018;2023-11-22T08:36:19;7.13;;;3.78;;
50367;SDS011;36281;34.132;-118.018;2023-11-22T08:38:49;5.68;;;3.42;;
50367;SDS011;36281;34.132;-118.018;2023-11-22T08:43:56;5.32;;;3.10;;
50367;SDS011;36281;34.132;-118.018;2023-11-22T08:46:29;4.85;;;3.10;;
50367;SDS011;36281;34.132;-118.018;2023-11-22T08:48:59;5.70;;;3.08;;
50367;SDS011;36281;34.132;-118.018;2023-11-22T08:51:35;5.43;;;3.20;;
50367;SDS011;36281;34.132;-118.018;2023-11-22T08:54:06;4.78;;;3.10;;
50367;SDS011;36281;34.132;-118.018;2023-11-22T08:56:46;6.22;;;3.30;;
50367;SDS011;36281;34.132;-118.018;2023-11-22T08:59:20;4.40;;;3.03;;
50367;SDS011;36281;34.132;-118.018;2023-11-22T09:01:58;3.40;;;2.80;;
50367;SDS011;36281;34.132;-118.018;2023-11-22T09:04:32;7.25;;;3.30;;
50367;SDS011;36281;34.132;-118.018;2023-11-22T09:07:03;4.30;;;2.97;;
50367;SDS011;36281;34.132;-118.018;2023-11-22T09:09:37;5.10;;;2.85;;
50367;SDS011;36281;34.132;-118.018;2023-11-22T09:12:12;5.60;;;2.88;;
50367;SDS011;36281;34.132;-118.018;2023-11-22T09:14:44;4.00;;;2.70;;
50367;SDS011;36281;34.132;-118.018;2023-11-22T09:17:21;4.47;;;2.40;;
50367;SDS011;36281;34.132;-118.018;2023-11-22T09:19:54;3.83;;;2.50;;
50367;SDS011;36281;34.132;-118.018;2023-11-22T09:22:24;2.88;;;2.58;;
50367;SDS011;36281;34.132;-118.018;2023-11-22T09:24:59;4.10;;;2.58;;
50367;SDS011;36281;34.132;-118.018;2023-11-22T09:27:32;3.63;;;2.70;;
50367;SDS011;36281;34.132;-118.018;2023-11-22T09:30:04;3.95;;;2.40;;
50367;SDS011;36281;34.132;-118.018;2023-11-22T09:32:37;3.38;;;2.20;;
50367;SDS011;36281;34.132;-118.018;2023-11-22T09:35:10;2.80;;;2.38;;
50367;SDS011;36281;34.132;-118.018;2023-11-22T09:37:44;2.17;;;1.98;;
50367;SDS011;36281;34.132;-118.018;2023-11-22T09:40:18;2.20;;;2.00;;
50367;SDS011;36281;34.132;-118.018;2023-11-22T09:42:55;3.13;;;2.05;;
50367;SDS011;36281;34.132;-118.018;2023-11-22T09:45:29;5.10;;;2.03;;
50367;SDS011;36281;34.132;-118.018;2023-11-22T09:48:05;2.25;;;1.80;;
50367;SDS011;36281;34.132;-118.018;2023-11-22T09:50:47;2.20;;;2.00;;
50367;SDS011;36281;34.132;-118.018;2023-11-22T09:53:25;5.10;;;2.30;;
50367;SDS011;36281;34.132;-118.018;2023-11-22T09:56:03;3.70;;;1.67;;
50367;SDS011;36281;34.132;-118.018;2023-11-22T09:58:39;3.55;;;1.90;;
50367;SDS011;36281;34.132;-118.018;2023-11-22T10:01:13;2.80;;;1.75;;
50367;SDS011;36281;34.132;-118.018;2023-11-22T10:03:48;2.15;;;1.80;;
50367;SDS011;36281;34.132;-118.018;2023-11-22T10:06:19;2.20;;;2.00;;
50367;SDS011;36281;34.132;-118.018;2023-11-22T10:08:53;3.15;;;1.95;;
50367;SDS011;36281;34.132;-118.018;2023-11-22T10:11:28;3.53;;;2.08;;
50367;SDS011;36281;34.132;-118.018;2023-11-22T10:13:58;2.15;;;1.80;;
50367;SDS011;36281;34.132;-118.018;2023-11-22T10:16:29;2.60;;;1.90;;
50367;SDS011;36281;34.132;-118.018;2023-11-22T10:19:05;2.20;;;2.00;;
50367;SDS011;36281;34.132;-118.018;2023-11-22T10:24:10;2.13;;;1.90;;
50367;SDS011;36281;34.132;-118.018;2023-11-22T10:26:42;3.15;;;1.95;;
50367;SDS011;36281;34.132;-118.018;2023-11-22T10:29:14;4.45;;;1.80;;
50367;SDS011;36281;34.132;-118.018;2023-11-22T10:31:47;4.40;;;2.10;;
50367;SDS011;36281;34.132;-118.018;2023-11-22T10:34:21;1.92;;;1.70;;
50367;SDS011;36281;34.132;-118.018;2023-11-22T10:36:55;2.10;;;1.85;;
50367;SDS011;36281;34.132;-118.018;2023-11-22T10:39:27;2.97;;;1.92;;
50367;SDS011;36281;34.132;-118.018;2023-11-22T10:41:59;2.00;;;1.80;;
50367;SDS011;36281;34.132;-118.018;2023-11-22T10:44:33;2.90;;;2.00;;
50367;SDS011;36281;34.132;-118.018;2023-11-22T10:47:07;3.58;;;1.88;;
50367;SDS011;36281;34.132;-118.018;2023-11-22T10:49:42;4.10;;;2.03;;
50367;SDS011;36281;34.132;-118.018;2023-11-22T10:52:14;3.03;;;1.85;;
50367;SDS011;36281;34.132;-118.018;2023-11-22T10:54:50;1.83;;;1.60;;
50367;SDS011;36281;34.132;-118.018;2023-11-22T10:57:36;2.08;;;1.80;;
50367;SDS011;36281;34.132;-118.018;2023-11-22T11:00:19;1.80;;;1.63;;
50367;SDS011;36281;34.132;-118.018;2023-11-22T11:02:51;1.60;;;1.50;;
50367;SDS011;36281;34.132;-118.018;2023-11-22T11:05:27;2.38;;;1.55;;
50367;SDS011;36281;34.132;-118.018;2023-11-22T11:08:00;2.15;;;1.50;;
50367;SDS011;36281;34.132;-118.018;2023-11-22T11:10:39;2.28;;;1.83;;
50367;SDS011;36281;34.132;-118.018;2023-11-22T11:13:10;2.10;;;1.90;;
50367;SDS011;36281;34.132;-118.018;2023-11-22T11:15:42;2.78;;;1.65;;
50367;SDS011;36281;34.132;-118.018;2023-11-22T11:18:27;2.30;;;1.30;;
50367;SDS011;36281;34.132;-118.018;2023-11-22T11:21:06;1.77;;;1.65;;
50367;SDS011;36281;34.132;-118.018;2023-11-22T11:23:41;4.00;;;1.60;;
50367;SDS011;36281;34.132;-118.018;2023-11-22T11:26:16;1.58;;;1.48;;
50367;SDS011;36281;34.132;-118.018;2023-11-22T11:28:51;2.70;;;1.70;;
50367;SDS011;36281;34.132;-118.018;2023-11-22T11:31:21;3.28;;;1.60;;
50367;SDS011;36281;34.132;-118.018;2023-11-22T11:33:55;1.83;;;1.50;;
50367;SDS011;36281;34.132;-118.018;2023-11-22T11:36:46;3.30;;;2.00;;
50367;SDS011;36281;34.132;-118.018;2023-11-22T11:39:26;1.88;;;1.60;;
50367;SDS011;36281;34.132;-118.018;2023-11-22T11:42:09;1.60;;;1.50;;
50367;SDS011;36281;34.132;-118.018;2023-11-22T11:44:52;2.65;;;1.85;;
50367;SDS011;36281;34.132;-118.018;2023-11-22T11:47:39;1.90;;;1.67;;
50367;SDS011;36281;34.132;-118.018;2023-11-22T11:50:14;2.70;;;1.75;;
50367;SDS011;36281;34.132;-118.018;2023-11-22T11:52:50;3.75;;;1.88;;
50367;SDS011;36281;34.132;-118.018;2023-11-22T11:55:20;1.70;;;1.60;;
50367;SDS011;36281;34.132;-118.018;2023-11-22T11:57:50;2.13;;;1.55;;
50367;SDS011;36281;34.132;-118.018;2023-11-22T12:00:24;2.38;;;1.75;;
50367;SDS011;36281;34.132;-118.018;2023-11-22T12:02:59;2.25;;;1.73;;
50367;SDS011;36281;34.132;-118.018;2023-11-22T12:05:33;2.17;;;1.70;;
50367;SDS011;36281;34.132;-118.018;2023-11-22T12:08:07;2.05;;;1.73;;
50367;SDS011;36281;34.132;-118.018;2023-11-22T12:10:46;4.72;;;1.88;;
50367;SDS011;36281;34.132;-118.018;2023-11-22T12:13:22;1.92;;;1.67;;
50367;SDS011;36281;34.132;-118.018;2023-11-22T12:15:54;2.22;;;1.83;;
50367;SDS011;36281;34.132;-118.018;2023-11-22T12:18:27;3.47;;;2.03;;
50367;SDS011;36281;34.132;-118.018;2023-11-22T12:21:01;2.35;;;1.70;;
50367;SDS011;36281;34.132;-118.018;2023-11-22T12:23:35;4.10;;;2.13;;
50367;SDS011;36281;34.132;-118.018;2023-11-22T12:26:09;5.07;;;2.17;;
50367;SDS011;36281;34.132;-118.018;2023-11-22T12:28:45;3.92;;;1.85;;
50367;SDS011;36281;34.132;-118.018;2023-11-22T12:31:30;3.10;;;2.00;;
50367;SDS011;36281;34.132;-118.018;2023-11-22T12:34:05;2.90;;;2.17;;
50367;SDS011;36281;34.132;-118.018;2023-11-22T12:36:36;3.03;;;1.80;;
50367;SDS011;36281;34.132;-118.018;2023-11-22T12:39:10;4.13;;;1.88;;
50367;SDS011;36281;34.132;-118.018;2023-11-22T12:41:47;2.55;;;1.77;;
50367;SDS011;36281;34.132;-118.018;2023-11-22T12:44:32;2.22;;;1.80;;
50367;SDS011;36281;34.132;-118.018;2023-11-22T12:47:30;2.50;;;1.90;;
50367;SDS011;36281;34.132;-118.018;2023-11-22T12:50:05;3.58;;;1.80;;
50367;SDS011;36281;34.132;-118.018;2023-11-22T12:52:59;3.70;;;1.88;;
50367;SDS011;36281;34.132;-118.018;2023-11-22T12:55:46;2.67;;;1.83;;
50367;SDS011;36281;34.132;-118.018;2023-11-22T12:58:18;1.95;;;1.70;;
50367;SDS011;36281;34.132;-118.018;2023-11-22T13:00:49;2.53;;;1.77;;
50367;SDS011;36281;34.132;-118.018;2023-11-22T13:03:29;3.63;;;1.80;;
50367;SDS011;36281;34.132;-118.018;2023-11-22T13:06:01;3.38;;;2.00;;
50367;SDS011;36281;34.132;-118.018;2023-11-22T13:08:32;2.67;;;1.80;;
50367;SDS011;36281;34.132;-118.018;2023-11-22T13:11:07;2.35;;;1.67;;
50367;SDS011;36281;34.132;-118.018;2023-11-22T13:13:42;2.80;;;1.75;;
50367;SDS011;36281;34.132;-118.018;2023-11-22T13:16:12;2.45;;;1.80;;
50367;SDS011;36281;34.132;-118.018;2023-11-22T13:18:45;1.63;;;1.50;;
50367;SDS011;36281;34.132;-118.018;2023-11-22T13:21:18;5.07;;;1.85;;
50367;SDS011;36281;34.132;-118.018;2023-11-22T13:23:50;2.72;;;2.00;;
50367;SDS011;36281;34.132;-118.018;2023-11-22T13:26:25;3.78;;;1.70;;
50367;SDS011;36281;34.132;-118.018;2023-11-22T13:28:58;1.92;;;1.73;;
50367;SDS011;36281;34.132;-118.018;2023-11-22T13:31:28;2.15;;;1.67;;
50367;SDS011;36281;34.132;-118.018;2023-11-22T13:33:59;3.47;;;1.88;;
50367;SDS011;36281;34.132;-118.018;2023-11-22T13:36:32;2.50;;;1.70;;
50367;SDS011;36281;34.132;-118.018;2023-11-22T13:39:06;2.13;;;1.80;;
50367;SDS011;36281;34.132;-118.018;2023-11-22T13:41:39;2.50;;;1.88;;
50367;SDS011;36281;34.132;-118.018;2023-11-22T13:44:11;2.45;;;1.90;;
50367;SDS011;36281;34.132;-118.018;2023-11-22T13:46:42;2.53;;;1.50;;
50367;SDS011;36281;34.132;-118.018;2023-11-22T13:49:13;2.22;;;2.00;;
50367;SDS011;36281;34.132;-118.018;2023-11-22T13:51:44;4.00;;;2.30;;
50367;SDS011;36281;34.132;-118.018;2023-11-22T13:54:15;5.40;;;2.53;;
50367;SDS011;36281;34.132;-118.018;2023-11-22T13:56:49;4.43;;;2.50;;
50367;SDS011;36281;34.132;-118.018;2023-11-22T13:59:20;5.43;;;2.60;;
50367;SDS011;36281;34.132;-118.018;2023-11-22T14:01:53;3.38;;;2.80;;
50367;SDS011;36281;34.132;-118.018;2023-11-22T14:04:26;4.05;;;2.40;;
50367;SDS011;36281;34.132;-118.018;2023-11-22T14:06:57;3.80;;;2.55;;
50367;SDS011;36281;34.132;-118.018;2023-11-22T14:09:29;3.58;;;2.30;;
50367;SDS011;36281;34.132;-118.018;2023-11-22T14:12:03;4.63;;;2.47;;
50367;SDS011;36281;34.132;-118.018;2023-11-22T14:14:34;3.92;;;2.47;;
50367;SDS011;36281;34.132;-118.018;2023-11-22T14:17:06;5.75;;;3.25;;
50367;SDS011;36281;34.132;-118.018;2023-11-22T14:19:37;3.67;;;2.55;;
50367;SDS011;36281;34.132;-118.018;2023-11-22T14:22:20;4.57;;;2.60;;
50367;SDS011;36281;34.132;-118.018;2023-11-22T14:24:51;4.47;;;2.72;;
50367;SDS011;36281;34.132;-118.018;2023-11-22T14:27:24;5.18;;;2.58;;
50367;SDS011;36281;34.132;-118.018;2023-11-22T14:29:59;5.72;;;2.55;;
50367;SDS011;36281;34.132;-118.018;2023-11-22T14:32:35;4.55;;;2.65;;
50367;SDS011;36281;34.132;-118.018;2023-11-22T14:35:07;4.75;;;2.65;;
50367;SDS011;36281;34.132;-118.018;2023-11-22T14:37:37;6.80;;;2.60;;
50367;SDS011;36281;34.132;-118.018;2023-11-22T14:40:11;8.23;;;3.15;;
50367;SDS011;36281;34.132;-118.018;2023-11-22T14:42:46;5.65;;;3.00;;
50367;SDS011;36281;34.132;-118.018;2023-11-22T14:45:20;3.75;;;2.70;;
50367;SDS011;36281;34.132;-118.018;2023-11-22T14:47:52;6.80;;;3.40;;
50367;SDS011;36281;34.132;-118.018;2023-11-22T14:50:22;4.82;;;2.90;;
50367;SDS011;36281;34.132;-118.018;2023-11-22T14:52:56;5.97;;;3.35;;
50367;SDS011;36281;34.132;-118.018;2023-11-22T14:55:29;15.27;;;3.40;;
50367;SDS011;36281;34.132;-118.018;2023-11-22T14:58:02;8.55;;;3.50;;